Time;durP1;ratioP1;P1;durP2;ratioP2;P2;SDS_P1;SDS_P2;PMS_P1;PMS_P2;Temp;Humidity;BMP_temperature;BMP_pressure;BME280_temperature;BME280_humidity;BME280_pressure;Samples;Min_cycle;Max_cycle;Signal;HPM_P1;HPM_P2
2024/03/22 00:00:45;;;;;;;7.63;6.93;;;17.30;51.60;;;;;;4983006;28;20680;-62
2024/03/22 00:03:11;;;;;;;10.03;7.40;;;17.30;51.60;;;;;;4986129;28;20182;-60
2024/03/22 00:05:36;;;;;;;7.07;6.37;;;17.30;51.20;;;;;;4984045;28;20175;-61
2024/03/22 00:08:02;;;;;;;8.30;7.60;;;17.30;51.10;;;;;;4987325;28;20225;-62
2024/03/22 00:10:27;;;;;;;7.23;6.60;;;17.40;50.50;;;;;;4990640;28;20223;-63
2024/03/22 00:12:53;;;;;;;7.57;6.77;;;17.30;50.50;;;;;;4993818;28;20273;-62
2024/03/22 00:15:19;;;;;;;8.80;6.23;;;17.30;50.20;;;;;;4994999;28;20204;-62
2024/03/22 00:17:45;;;;;;;10.67;7.00;;;17.30;50.40;;;;;;4985096;28;20238;-62
2024/03/22 00:20:11;;;;;;;8.73;6.80;;;17.40;51.00;;;;;;4987286;28;20576;-62
2024/03/22 00:22:36;;;;;;;7.60;6.53;;;17.50;50.50;;;;;;4988246;28;20439;-62
2024/03/22 00:25:02;;;;;;;7.67;6.27;;;17.50;50.40;;;;;;4989013;28;20201;-61
2024/03/22 00:27:28;;;;;;;7.73;6.93;;;17.50;50.30;;;;;;4991607;28;20592;-60
2024/03/22 00:29:53;;;;;;;6.97;6.27;;;17.60;49.80;;;;;;4991442;28;20188;-60
2024/03/22 00:32:19;;;;;;;7.17;5.97;;;17.60;49.60;;;;;;4994169;28;20182;-62
2024/03/22 00:34:45;;;;;;;6.97;6.30;;;17.60;49.20;;;;;;4992851;28;20609;-62
2024/03/22 00:37:10;;;;;;;9.00;6.10;;;17.50;49.20;;;;;;4989399;28;20577;-62
2024/03/22 00:39:36;;;;;;;6.20;5.60;;;17.30;50.50;;;;;;4989756;28;20191;-63
2024/03/22 00:42:02;;;;;;;7.00;6.07;;;17.20;51.00;;;;;;4990162;28;20183;-62
2024/03/22 00:44:27;;;;;;;7.20;6.27;;;17.10;50.40;;;;;;4990684;28;20270;-60
2024/03/22 00:46:53;;;;;;;9.10;7.00;;;16.90;51.20;;;;;;4990107;28;20261;-62
2024/03/22 00:49:18;;;;;;;9.77;6.63;;;16.60;51.70;;;;;;4997752;28;20183;-62
2024/03/22 00:51:44;;;;;;;8.30;6.53;;;16.50;52.50;;;;;;4993810;28;20183;-63
2024/03/22 00:54:10;;;;;;;8.77;7.00;;;16.50;52.50;;;;;;4986181;28;20182;-62
2024/03/22 00:56:36;;;;;;;7.47;6.07;;;16.70;52.40;;;;;;4989383;28;20845;-63
2024/03/22 00:59:01;;;;;;;7.83;7.03;;;16.80;52.00;;;;;;4989606;28;20193;-63
2024/03/22 01:01:27;;;;;;;6.53;5.93;;;16.90;51.10;;;;;;4988997;28;21020;-62
2024/03/22 01:03:53;;;;;;;8.00;6.43;;;16.90;50.90;;;;;;4990774;28;20194;-62
2024/03/22 01:06:23;;;;;;;8.90;6.93;;;16.90;50.50;;;;;;4987341;28;20453;-63
2024/03/22 01:08:49;;;;;;;8.43;6.67;;;16.90;51.30;;;;;;4991786;28;20269;-63
2024/03/22 01:11:15;;;;;;;7.67;5.77;;;16.90;50.30;;;;;;4992513;28;20565;-61
2024/03/22 01:13:40;;;;;;;6.33;5.73;;;16.90;50.80;;;;;;4989363;28;20331;-60
2024/03/22 01:16:08;;;;;;;7.50;6.80;;;17.00;51.00;;;;;;4986603;28;20475;-61
2024/03/22 01:18:33;;;;;;;5.93;5.13;;;16.90;51.40;;;;;;4991629;28;20245;-61
2024/03/22 01:20:59;;;;;;;6.53;5.40;;;16.90;51.20;;;;;;4993086;28;20441;-61
2024/03/22 01:23:25;;;;;;;6.90;5.60;;;17.00;51.00;;;;;;4991287;28;20182;-60
2024/03/22 01:25:50;;;;;;;6.80;6.07;;;16.90;51.10;;;;;;4992274;28;20792;-61
2024/03/22 01:28:16;;;;;;;6.03;5.57;;;16.90;51.20;;;;;;4991026;28;20841;-60
2024/03/22 01:30:42;;;;;;;5.73;5.17;;;16.80;50.80;;;;;;4992054;28;20658;-60
2024/03/22 01:33:08;;;;;;;6.03;5.50;;;16.70;51.00;;;;;;4989955;28;20221;-61
2024/03/22 01:35:33;;;;;;;6.17;5.67;;;16.60;50.90;;;;;;4988462;28;20476;-59
2024/03/22 01:37:59;;;;;;;5.70;4.70;;;16.50;51.40;;;;;;4984855;28;20215;-62
2024/03/22 01:40:25;;;;;;;6.00;5.07;;;16.40;52.60;;;;;;4984452;28;20187;-61
2024/03/22 01:42:55;;;;;;;6.97;5.47;;;16.40;52.30;;;;;;4987488;28;20209;-59
2024/03/22 01:45:24;;;;;;;6.10;5.50;;;16.40;52.50;;;;;;4988198;28;20189;-63
2024/03/22 01:47:51;;;;;;;6.07;5.47;;;16.40;52.00;;;;;;4985706;28;20572;-61
2024/03/22 01:50:17;;;;;;;7.70;5.97;;;16.40;51.20;;;;;;4984751;28;20465;-62
2024/03/22 01:52:43;;;;;;;6.33;5.73;;;16.40;52.20;;;;;;4988168;28;20438;-63
2024/03/22 01:55:08;;;;;;;6.73;6.03;;;16.20;52.80;;;;;;4987485;28;20450;-61
2024/03/22 01:57:35;;;;;;;7.60;6.03;;;16.30;52.80;;;;;;4986987;28;20214;-61
2024/03/22 02:00:00;;;;;;;6.20;5.60;;;16.30;53.00;;;;;;4986766;28;20682;-59
2024/03/22 02:02:26;;;;;;;6.10;5.50;;;16.40;51.80;;;;;;4987347;28;20446;-60
2024/03/22 02:04:52;;;;;;;6.53;5.93;;;16.50;51.60;;;;;;4988220;28;20183;-59
2024/03/22 02:07:17;;;;;;;6.83;6.17;;;16.50;51.20;;;;;;4984700;28;21683;-61
2024/03/22 02:09:43;;;;;;;6.17;5.57;;;16.40;51.20;;;;;;4986903;28;20217;-60
2024/03/22 02:12:09;;;;;;;6.20;5.17;;;16.40;52.10;;;;;;4985303;28;20202;-60
2024/03/22 02:14:34;;;;;;;6.23;5.33;;;16.40;51.70;;;;;;4986989;28;20962;-63
2024/03/22 02:17:00;;;;;;;6.13;5.50;;;16.30;52.50;;;;;;4986365;28;20454;-60
2024/03/22 02:19:25;;;;;;;6.00;5.40;;;16.30;52.50;;;;;;4986237;28;20190;-61
2024/03/22 02:21:51;;;;;;;6.77;5.30;;;16.40;51.80;;;;;;4989337;28;20187;-60
2024/03/22 02:24:17;;;;;;;6.00;5.50;;;16.40;51.90;;;;;;4987407;28;20187;-59
2024/03/22 02:26:42;;;;;;;7.10;5.53;;;16.40;52.70;;;;;;4981758;28;20214;-62
2024/03/22 02:29:08;;;;;;;5.90;5.40;;;16.50;51.80;;;;;;4988526;28;20674;-60
2024/03/22 02:31:33;;;;;;;5.83;5.33;;;16.60;51.80;;;;;;4990319;28;20266;-61
2024/03/22 02:33:59;;;;;;;6.43;5.80;;;16.60;51.10;;;;;;4990700;28;20191;-59
2024/03/22 02:36:25;;;;;;;7.40;5.70;;;16.60;50.10;;;;;;4990342;28;20630;-59
2024/03/22 02:38:51;;;;;;;8.73;5.50;;;16.60;50.20;;;;;;4986035;28;20178;-61
2024/03/22 02:41:16;;;;;;;6.07;5.57;;;16.60;50.60;;;;;;4991126;28;20944;-59
2024/03/22 02:43:42;;;;;;;6.77;5.20;;;16.60;50.70;;;;;;4990680;28;20244;-61
2024/03/22 02:46:07;;;;;;;6.60;6.00;;;16.60;51.00;;;;;;4989434;28;20237;-60
2024/03/22 02:48:33;;;;;;;7.00;5.33;;;16.60;51.20;;;;;;4987262;28;20241;-61
2024/03/22 02:50:59;;;;;;;6.17;5.60;;;16.50;51.00;;;;;;4984163;28;20183;-62
2024/03/22 02:53:24;;;;;;;6.30;5.67;;;16.50;51.60;;;;;;4981142;28;20186;-62
2024/03/22 02:55:50;;;;;;;6.10;5.50;;;16.20;52.00;;;;;;4983173;28;20183;-61
2024/03/22 02:58:18;;;;;;;7.20;5.90;;;16.10;52.00;;;;;;4982349;28;20362;-59
2024/03/22 03:00:44;;;;;;;6.00;5.40;;;16.10;52.10;;;;;;4986780;28;20186;-59
2024/03/22 03:03:10;;;;;;;5.87;5.37;;;16.00;52.60;;;;;;4990380;28;21019;-59
2024/03/22 03:05:35;;;;;;;6.20;5.23;;;15.90;52.60;;;;;;4990201;28;20182;-62
2024/03/22 03:08:01;;;;;;;6.30;5.20;;;15.70;52.50;;;;;;4985712;28;20711;-62
2024/03/22 03:10:28;;;;;;;8.53;5.77;;;15.70;52.40;;;;;;4985319;28;20238;-61
2024/03/22 03:12:56;;;;;;;6.17;5.43;;;15.70;52.80;;;;;;4989901;28;20507;-61
2024/03/22 03:15:22;;;;;;;5.40;4.90;;;15.70;53.00;;;;;;4985140;28;20210;-60
2024/03/22 03:17:47;;;;;;;6.87;6.00;;;15.60;53.30;;;;;;4982421;28;20843;-60
2024/03/22 03:20:13;;;;;;;6.80;6.20;;;15.60;53.40;;;;;;4988618;28;20200;-63
2024/03/22 03:22:41;;;;;;;9.10;6.80;;;15.70;53.20;;;;;;4984074;28;20186;-59
2024/03/22 03:25:07;;;;;;;7.20;6.10;;;15.80;53.30;;;;;;4989436;28;20187;-60
2024/03/22 03:27:33;;;;;;;6.53;5.90;;;16.00;52.70;;;;;;4988872;28;21477;-61
2024/03/22 03:29:59;;;;;;;8.37;6.13;;;16.10;51.80;;;;;;4980994;28;20222;-61
2024/03/22 03:32:25;;;;;;;9.40;6.70;;;16.20;51.90;;;;;;4983405;28;20574;-61
2024/03/22 03:34:51;;;;;;;7.07;6.40;;;16.30;51.80;;;;;;4988527;28;20280;-60
2024/03/22 03:37:16;;;;;;;8.17;6.30;;;16.40;51.10;;;;;;4987483;28;20656;-60
2024/03/22 03:39:42;;;;;;;7.67;6.80;;;16.30;50.40;;;;;;4996368;28;20437;-60
2024/03/22 03:42:07;;;;;;;8.13;6.87;;;15.90;50.70;;;;;;4988486;28;20190;-60
2024/03/22 03:44:33;;;;;;;7.97;6.90;;;15.60;52.10;;;;;;4994302;28;20191;-54
2024/03/22 03:47:01;;;;;;;7.43;6.73;;;15.30;51.90;;;;;;4984675;28;20226;-57
2024/03/22 03:49:26;;;;;;;7.90;6.90;;;15.00;52.50;;;;;;4987578;28;20194;-59
2024/03/22 03:51:52;;;;;;;7.70;6.60;;;14.80;53.00;;;;;;4985380;28;20804;-58
2024/03/22 03:54:18;;;;;;;9.03;7.13;;;14.50;53.60;;;;;;4988646;28;20194;-55
2024/03/22 03:56:43;;;;;;;11.97;7.47;;;14.40;54.00;;;;;;4983863;28;20694;-54
2024/03/22 03:59:09;;;;;;;9.93;6.53;;;14.10;54.90;;;;;;4985211;28;20190;-59
2024/03/22 04:01:35;;;;;;;10.83;6.77;;;13.90;55.00;;;;;;4987017;28;20190;-58
2024/03/22 04:04:00;;;;;;;11.13;7.70;;;13.90;55.20;;;;;;4986615;28;20186;-57
2024/03/22 04:06:26;;;;;;;7.70;6.90;;;13.90;55.00;;;;;;4989601;28;20218;-57
2024/03/22 04:08:51;;;;;;;7.27;6.50;;;13.80;55.90;;;;;;4986033;28;20185;-62
2024/03/22 04:11:17;;;;;;;9.03;6.67;;;13.70;55.50;;;;;;4986236;28;20195;-58
2024/03/22 04:13:43;;;;;;;8.43;7.33;;;13.70;55.70;;;;;;4984399;28;20666;-59
2024/03/22 04:16:08;;;;;;;8.33;6.90;;;13.70;55.60;;;;;;4985135;28;20244;-58
2024/03/22 04:18:34;;;;;;;7.90;7.20;;;13.70;55.50;;;;;;4983126;28;20282;-55
2024/03/22 04:21:01;;;;;;;8.23;7.40;;;13.70;55.50;;;;;;4989358;28;20864;-56
2024/03/22 04:23:26;;;;;;;12.90;7.10;;;13.70;55.50;;;;;;4987059;28;20284;-56
2024/03/22 04:25:59;;;;;;;9.20;8.30;;;13.60;55.60;;;;;;4988035;28;20444;-60
2024/03/22 04:28:28;;;;;;;10.00;7.80;;;13.60;55.80;;;;;;4986461;28;20241;-56
2024/03/22 04:30:56;;;;;;;8.37;6.93;;;13.30;56.40;;;;;;4986465;28;20441;-57
2024/03/22 04:33:22;;;;;;;7.77;6.97;;;13.10;57.20;;;;;;4989886;28;21308;-59
2024/03/22 04:35:47;;;;;;;7.77;7.07;;;12.90;57.30;;;;;;4985891;28;20471;-58
2024/03/22 04:38:13;;;;;;;12.63;7.87;;;12.90;57.50;;;;;;4987627;28;20205;-58
2024/03/22 04:40:39;;;;;;;7.87;6.80;;;12.90;57.40;;;;;;4987881;28;20659;-57
2024/03/22 04:43:05;;;;;;;9.60;7.13;;;12.80;57.60;;;;;;4985651;28;20183;-58
2024/03/22 04:45:30;;;;;;;9.90;7.10;;;12.80;57.70;;;;;;4988442;28;20426;-55
2024/03/22 04:47:56;;;;;;;12.43;7.57;;;12.90;57.60;;;;;;4987106;28;20284;-58
2024/03/22 04:50:21;;;;;;;8.63;7.67;;;12.90;57.60;;;;;;4985808;28;20321;-57
2024/03/22 04:52:47;;;;;;;7.73;6.93;;;13.00;57.60;;;;;;4982640;28;20186;-58
2024/03/22 04:55:13;;;;;;;10.50;7.67;;;13.00;57.50;;;;;;4986984;28;20241;-55
2024/03/22 04:57:38;;;;;;;8.10;7.10;;;12.90;57.70;;;;;;4988080;28;20209;-57
2024/03/22 05:00:07;;;;;;;8.13;7.10;;;12.80;57.90;;;;;;4986155;28;20836;-58
2024/03/22 05:02:32;;;;;;;8.20;6.93;;;12.80;57.90;;;;;;4984690;28;20190;-55
2024/03/22 05:04:58;;;;;;;10.97;8.00;;;12.80;57.90;;;;;;4984855;28;20448;-58
2024/03/22 05:07:23;;;;;;;8.83;7.43;;;12.80;58.30;;;;;;4985031;28;20350;-61
2024/03/22 05:09:49;;;;;;;8.00;7.20;;;12.60;58.60;;;;;;4984950;28;20191;-58
2024/03/22 05:12:14;;;;;;;8.10;7.30;;;12.40;58.70;;;;;;4982980;28;20194;-58
2024/03/22 05:14:40;;;;;;;12.00;7.30;;;12.30;59.20;;;;;;4983488;28;20237;-57
2024/03/22 05:17:06;;;;;;;10.50;8.63;;;12.40;59.40;;;;;;4984025;28;20245;-61
2024/03/22 05:19:31;;;;;;;12.13;7.87;;;12.50;59.10;;;;;;4985177;28;20524;-57
2024/03/22 05:21:57;;;;;;;10.10;9.10;;;12.30;59.10;;;;;;4986769;28;20187;-58
2024/03/22 05:24:22;;;;;;;8.97;6.70;;;12.30;59.40;;;;;;4983777;28;20699;-57
2024/03/22 05:26:48;;;;;;;10.33;8.00;;;12.20;59.50;;;;;;4982698;28;20210;-59
2024/03/22 05:29:14;;;;;;;7.63;6.43;;;12.20;59.90;;;;;;4983568;28;20241;-63
2024/03/22 05:31:48;;;;;;;9.10;6.83;;;12.40;59.70;;;;;;4986847;28;20190;-58
2024/03/22 05:34:14;;;;;;;13.60;7.47;;;12.30;59.70;;;;;;4981036;28;20504;-59
2024/03/22 05:36:40;;;;;;;13.63;8.17;;;12.20;59.90;;;;;;4984023;28;20988;-61
2024/03/22 05:39:06;;;;;;;8.57;7.70;;;12.20;60.40;;;;;;4983631;28;20594;-61
2024/03/22 05:41:31;;;;;;;13.70;9.10;;;12.20;60.00;;;;;;4986622;28;20445;-60
2024/03/22 05:43:57;;;;;;;13.17;8.90;;;12.40;60.00;;;;;;4986334;28;20671;-57
2024/03/22 05:46:23;;;;;;;12.00;9.83;;;12.60;59.80;;;;;;4983185;28;20977;-60
2024/03/22 05:48:50;;;;;;;9.80;8.73;;;12.70;60.10;;;;;;4988154;28;20245;-59
2024/03/22 05:51:16;;;;;;;10.67;8.60;;;12.80;59.30;;;;;;4985652;28;20194;-60
2024/03/22 05:53:42;;;;;;;9.33;7.77;;;12.70;59.30;;;;;;4984350;28;20511;-56
2024/03/22 05:56:07;;;;;;;9.10;7.87;;;12.60;59.40;;;;;;4984412;28;20500;-58
2024/03/22 05:58:34;;;;;;;8.43;6.73;;;12.40;60.20;;;;;;4986072;28;20434;-56
2024/03/22 06:00:59;;;;;;;8.23;7.17;;;12.50;60.30;;;;;;4988634;28;20893;-57
2024/03/22 06:03:25;;;;;;;11.57;8.80;;;12.60;59.90;;;;;;4984876;28;20584;-58
2024/03/22 06:05:55;;;;;;;9.03;7.60;;;12.60;59.70;;;;;;4986656;28;20631;-60
2024/03/22 06:08:20;;;;;;;9.30;7.30;;;12.50;60.00;;;;;;4982146;28;20321;-61
2024/03/22 06:10:46;;;;;;;8.63;7.07;;;12.30;60.50;;;;;;4983689;28;20540;-59
2024/03/22 06:13:12;;;;;;;8.40;7.60;;;12.20;60.90;;;;;;4984378;28;20195;-58
2024/03/22 06:15:37;;;;;;;8.83;7.97;;;12.10;61.40;;;;;;4983029;28;20186;-57
2024/03/22 06:18:03;;;;;;;7.73;6.90;;;12.10;61.30;;;;;;4983520;28;20293;-59
2024/03/22 06:20:28;;;;;;;9.70;8.07;;;12.20;61.50;;;;;;4987533;28;20340;-59
2024/03/22 06:22:54;;;;;;;9.47;7.20;;;12.30;60.90;;;;;;4986038;28;20257;-58
2024/03/22 06:25:19;;;;;;;8.53;7.73;;;12.50;60.60;;;;;;4986479;28;20198;-58
2024/03/22 06:27:45;;;;;;;9.37;8.30;;;12.60;60.10;;;;;;4990195;28;20210;-57
2024/03/22 06:30:11;;;;;;;8.23;7.17;;;12.80;59.80;;;;;;4984011;28;20178;-61
2024/03/22 06:32:37;;;;;;;8.53;7.13;;;12.90;59.20;;;;;;4989076;28;20186;-57
2024/03/22 06:35:03;;;;;;;9.03;7.43;;;12.90;59.10;;;;;;4990608;28;20421;-61
2024/03/22 06:37:28;;;;;;;8.70;7.83;;;13.00;58.90;;;;;;4990302;28;20214;-60
2024/03/22 06:39:54;;;;;;;15.03;7.53;;;13.10;58.80;;;;;;4990635;28;20784;-59
2024/03/22 06:42:19;;;;;;;10.53;7.87;;;13.20;58.70;;;;;;4991343;28;20210;-58
2024/03/22 06:44:45;;;;;;;9.87;8.10;;;12.90;59.00;;;;;;4990617;28;20277;-57
2024/03/22 06:47:10;;;;;;;12.03;7.33;;;12.70;59.50;;;;;;4990075;28;20222;-62
2024/03/22 06:49:36;;;;;;;12.03;7.43;;;12.90;60.20;;;;;;4990858;28;20186;-60
2024/03/22 06:52:02;;;;;;;9.53;7.93;;;13.00;62.30;;;;;;4986471;28;20187;-58
2024/03/22 06:54:27;;;;;;;10.40;7.27;;;13.40;61.40;;;;;;4986396;28;20281;-60
2024/03/22 06:56:53;;;;;;;10.00;7.40;;;13.60;60.10;;;;;;4989215;28;20566;-62
2024/03/22 06:59:18;;;;;;;9.73;8.30;;;13.80;59.80;;;;;;4990294;28;20210;-58
2024/03/22 07:01:44;;;;;;;9.37;7.63;;;14.20;58.60;;;;;;4988665;28;20194;-61
2024/03/22 07:04:09;;;;;;;8.30;7.23;;;14.50;58.10;;;;;;4989795;28;20974;-59
2024/03/22 07:06:35;;;;;;;17.13;8.40;;;14.70;57.70;;;;;;4989721;28;20671;-62
2024/03/22 07:09:00;;;;;;;12.80;7.63;;;14.90;57.10;;;;;;4989494;28;20545;-58
2024/03/22 07:11:26;;;;;;;10.13;7.47;;;15.00;57.10;;;;;;4990041;28;20214;-56
2024/03/22 07:13:51;;;;;;;10.37;9.37;;;15.20;56.80;;;;;;4989886;28;20274;-62
2024/03/22 07:16:18;;;;;;;8.97;8.07;;;15.40;55.70;;;;;;4989719;28;20971;-62
2024/03/22 07:18:44;;;;;;;10.90;9.60;;;15.30;56.30;;;;;;4985492;28;20191;-59
2024/03/22 07:21:10;;;;;;;8.83;7.60;;;15.10;56.70;;;;;;4989018;28;20441;-62
2024/03/22 07:23:35;;;;;;;12.00;8.87;;;15.30;56.80;;;;;;4988953;28;20199;-63
2024/03/22 07:26:01;;;;;;;10.23;8.53;;;15.70;55.80;;;;;;4993494;28;20214;-61
2024/03/22 07:28:26;;;;;;;12.37;9.10;;;15.80;55.50;;;;;;4989168;28;20317;-61
2024/03/22 07:30:53;;;;;;;9.97;8.67;;;16.00;55.30;;;;;;4988214;28;20179;-59
2024/03/22 07:33:19;;;;;;;13.03;9.27;;;16.40;55.00;;;;;;4988926;28;20268;-62
2024/03/22 07:35:44;;;;;;;8.80;8.00;;;16.70;54.00;;;;;;4989424;28;20422;-59
2024/03/22 07:38:10;;;;;;;10.00;8.27;;;16.90;53.60;;;;;;4988888;28;20357;-59
2024/03/22 07:40:36;;;;;;;14.57;8.97;;;17.20;52.90;;;;;;4989757;28;20193;-63
2024/03/22 07:43:07;;;;;;;9.87;8.37;;;17.20;52.70;;;;;;4990754;28;20426;-63
2024/03/22 07:45:37;;;;;;;10.00;9.00;;;17.60;52.60;;;;;;4987602;28;20187;-59
2024/03/22 07:48:02;;;;;;;13.60;8.50;;;17.50;52.70;;;;;;4994690;28;20487;-59
2024/03/22 07:50:28;;;;;;;9.13;8.10;;;17.80;52.60;;;;;;4989257;28;20437;-61
2024/03/22 07:52:54;;;;;;;10.27;9.17;;;18.00;52.00;;;;;;4989981;28;20254;-61
2024/03/22 07:55:19;;;;;;;11.17;7.43;;;18.00;51.80;;;;;;4988077;28;20281;-62
2024/03/22 07:57:45;;;;;;;9.67;8.40;;;18.20;52.10;;;;;;4988150;28;20740;-58
2024/03/22 08:00:11;;;;;;;11.40;9.33;;;18.40;52.00;;;;;;4988678;28;20193;-58
2024/03/22 08:02:37;;;;;;;10.60;9.70;;;18.60;51.70;;;;;;4985891;28;20495;-61
2024/03/22 08:05:03;;;;;;;8.60;7.80;;;18.80;51.70;;;;;;4987679;28;20538;-64
2024/03/22 08:07:29;;;;;;;10.67;9.57;;;18.80;50.70;;;;;;4987423;28;20226;-58
2024/03/22 08:09:55;;;;;;;9.37;8.40;;;18.90;50.90;;;;;;4993780;28;20457;-61
2024/03/22 08:12:21;;;;;;;10.80;9.80;;;19.10;50.70;;;;;;4989251;28;20266;-60
2024/03/22 08:14:47;;;;;;;10.33;9.20;;;19.20;50.40;;;;;;4989233;28;20513;-59
2024/03/22 08:17:12;;;;;;;10.57;8.23;;;19.20;50.10;;;;;;4988933;28;20441;-60
2024/03/22 08:19:38;;;;;;;10.03;9.00;;;19.40;50.40;;;;;;4987888;28;20206;-61
2024/03/22 08:22:04;;;;;;;10.83;8.20;;;19.30;49.80;;;;;;4989548;28;20559;-64
2024/03/22 08:24:30;;;;;;;11.30;9.83;;;19.20;49.80;;;;;;4989004;28;20217;-61
2024/03/22 08:26:55;;;;;;;9.23;8.30;;;19.30;49.70;;;;;;4988965;28;20516;-57
2024/03/22 08:29:21;;;;;;;11.13;8.37;;;19.20;49.90;;;;;;4987308;28;20183;-59
2024/03/22 08:31:47;;;;;;;10.37;9.37;;;19.20;49.90;;;;;;4990439;28;20183;-58
2024/03/22 08:34:12;;;;;;;8.70;7.80;;;19.30;50.30;;;;;;4992912;28;20638;-61
2024/03/22 08:36:38;;;;;;;10.07;8.50;;;19.50;49.80;;;;;;4992732;28;20203;-61
2024/03/22 08:39:05;;;;;;;8.90;8.00;;;19.60;49.40;;;;;;4991515;28;20183;-60
2024/03/22 08:41:30;;;;;;;10.50;8.63;;;19.50;49.50;;;;;;4993075;28;20800;-59
2024/03/22 08:43:57;;;;;;;8.70;7.90;;;19.40;49.50;;;;;;4992914;28;20434;-61
2024/03/22 08:46:24;;;;;;;9.23;8.10;;;19.50;49.90;;;;;;4992365;28;20619;-62
2024/03/22 08:48:50;;;;;;;12.13;9.40;;;19.50;49.60;;;;;;4990430;28;20522;-60
2024/03/22 08:51:15;;;;;;;10.27;9.17;;;19.30;49.80;;;;;;4992794;28;20465;-61
2024/03/22 08:53:41;;;;;;;11.43;8.60;;;19.30;50.40;;;;;;4990087;28;20187;-61
2024/03/22 08:56:07;;;;;;;8.97;7.93;;;19.20;50.20;;;;;;4991856;28;20185;-62
2024/03/22 08:58:33;;;;;;;8.63;7.60;;;19.40;50.70;;;;;;4991787;28;20210;-62
2024/03/22 09:00:58;;;;;;;12.83;8.60;;;19.30;50.80;;;;;;4993371;28;20840;-62
2024/03/22 09:03:24;;;;;;;10.80;8.70;;;19.50;50.70;;;;;;4994056;28;20356;-60
2024/03/22 09:05:53;;;;;;;14.40;9.30;;;19.70;51.20;;;;;;4991948;28;20501;-60
2024/03/22 09:08:21;;;;;;;10.17;8.60;;;19.90;50.60;;;;;;4990363;28;20797;-63
2024/03/22 09:10:47;;;;;;;12.93;8.43;;;20.10;50.30;;;;;;4991676;28;20461;-62
2024/03/22 09:13:12;;;;;;;9.80;8.60;;;20.30;50.70;;;;;;4987828;28;20446;-62
2024/03/22 09:15:39;;;;;;;9.10;7.40;;;20.20;49.80;;;;;;4989014;28;20553;-62
2024/03/22 09:18:04;;;;;;;10.47;8.47;;;20.30;49.90;;;;;;4996720;28;20207;-63
2024/03/22 09:20:30;;;;;;;10.47;7.90;;;20.50;49.70;;;;;;4988403;28;20451;-61
2024/03/22 09:22:57;;;;;;;10.57;9.23;;;20.60;49.50;;;;;;4992471;28;20281;-62
2024/03/22 09:25:24;;;;;;;9.30;8.10;;;20.80;49.90;;;;;;4988668;28;20610;-62
2024/03/22 09:27:50;;;;;;;9.07;8.17;;;20.90;49.10;;;;;;4988294;28;20477;-62
2024/03/22 09:30:15;;;;;;;8.90;7.90;;;21.00;48.70;;;;;;4990164;28;20500;-64
2024/03/22 09:32:42;;;;;;;9.80;8.00;;;21.20;48.20;;;;;;4992126;28;20187;-61
2024/03/22 09:35:08;;;;;;;15.93;9.17;;;21.20;48.40;;;;;;4988562;28;20187;-63
2024/03/22 09:37:34;;;;;;;10.97;8.70;;;21.00;48.20;;;;;;4989476;28;20462;-62
2024/03/22 09:39:59;;;;;;;10.20;8.60;;;21.10;48.70;;;;;;4990192;28;20448;-62
2024/03/22 09:42:25;;;;;;;12.63;9.60;;;21.30;48.40;;;;;;4989321;28;20250;-62
2024/03/22 09:44:51;;;;;;;11.27;9.20;;;21.40;47.50;;;;;;4990475;28;20189;-60
2024/03/22 09:47:18;;;;;;;10.20;8.07;;;21.60;47.40;;;;;;4989065;28;20999;-63
2024/03/22 09:49:46;;;;;;;8.37;7.57;;;21.70;47.00;;;;;;4989044;28;20217;-64
2024/03/22 09:52:14;;;;;;;8.43;7.63;;;21.80;47.00;;;;;;4986617;28;20441;-62
2024/03/22 09:54:41;;;;;;;11.80;9.37;;;21.80;46.10;;;;;;4989787;28;20536;-62
2024/03/22 09:57:13;;;;;;;8.60;7.70;;;21.90;46.70;;;;;;4988887;28;20513;-62
2024/03/22 09:59:39;;;;;;;12.50;8.07;;;22.10;46.80;;;;;;4991165;28;20428;-62
2024/03/22 10:02:08;;;;;;;10.87;8.37;;;22.20;45.90;;;;;;4994944;28;20825;-62
2024/03/22 10:04:35;;;;;;;10.57;8.57;;;22.20;45.40;;;;;;4991414;28;20441;-62
2024/03/22 10:07:02;;;;;;;8.60;7.70;;;22.40;45.60;;;;;;4990798;28;20481;-63
2024/03/22 10:09:30;;;;;;;9.30;8.37;;;22.50;45.70;;;;;;4991200;28;20453;-62
2024/03/22 10:11:56;;;;;;;9.33;8.53;;;22.70;45.00;;;;;;4994183;28;20465;-63
2024/03/22 10:14:24;;;;;;;10.03;8.30;;;22.90;44.80;;;;;;4991997;28;20414;-63
2024/03/22 10:16:54;;;;;;;8.43;7.73;;;23.20;44.80;;;;;;4990179;28;21055;-62
2024/03/22 10:19:23;;;;;;;8.97;8.07;;;23.40;44.80;;;;;;4989776;28;20434;-62
2024/03/22 10:22:05;;;;;;;7.90;7.20;;;23.50;44.80;;;;;;4990598;28;20527;-62
2024/03/22 10:24:33;;;;;;;7.10;6.43;;;23.70;43.20;;;;;;4990004;28;20473;-62
2024/03/22 10:26:58;;;;;;;6.50;5.90;;;23.80;43.70;;;;;;4990204;28;20493;-62
2024/03/22 10:29:24;;;;;;;6.87;6.27;;;23.80;42.10;;;;;;4990682;28;20434;-60
2024/03/22 10:31:54;;;;;;;6.93;6.17;;;23.80;41.40;;;;;;4990350;28;20202;-63
2024/03/22 10:34:23;;;;;;;8.20;6.07;;;24.00;41.70;;;;;;4990879;28;20178;-62
2024/03/22 10:36:50;;;;;;;6.00;5.40;;;24.00;42.40;;;;;;4990032;28;20841;-61
2024/03/22 10:39:18;;;;;;;5.80;5.10;;;24.00;41.00;;;;;;4988660;28;20451;-65
2024/03/22 10:41:47;;;;;;;8.77;7.23;;;24.20;41.40;;;;;;4986461;28;20422;-61
2024/03/22 10:44:14;;;;;;;7.10;6.50;;;24.20;40.10;;;;;;4990667;28;20422;-62
2024/03/22 10:46:48;;;;;;;7.17;6.33;;;24.10;39.80;;;;;;4989608;28;20498;-60
2024/03/22 10:49:18;;;;;;;8.07;6.90;;;24.10;40.60;;;;;;4987260;28;20434;-60
2024/03/22 10:51:49;;;;;;;9.40;5.80;;;24.10;39.90;;;;;;4988510;28;20815;-60
2024/03/22 10:54:22;;;;;;;7.17;6.30;;;24.30;39.80;;;;;;4983561;28;20442;-62
2024/03/22 10:56:49;;;;;;;6.67;5.73;;;24.30;39.70;;;;;;4987143;28;20984;-63
2024/03/22 10:59:23;;;;;;;6.50;5.83;;;24.40;39.50;;;;;;4985590;28;20875;-63
2024/03/22 11:01:50;;;;;;;5.60;5.03;;;24.40;38.90;;;;;;4987325;28;20803;-61
2024/03/22 11:04:22;;;;;;;7.23;6.53;;;24.50;38.80;;;;;;4988034;28;20521;-63
2024/03/22 11:06:50;;;;;;;7.67;6.60;;;24.50;38.80;;;;;;4984906;28;20593;-62
2024/03/22 11:09:22;;;;;;;7.77;6.37;;;24.60;38.50;;;;;;4989311;28;20430;-63
2024/03/22 11:11:48;;;;;;;8.77;5.53;;;24.80;38.50;;;;;;4984560;28;20901;-61
2024/03/22 11:14:14;;;;;;;4.90;4.50;;;24.80;39.60;;;;;;4988842;28;20441;-64
2024/03/22 11:16:46;;;;;;;6.27;5.67;;;25.10;39.90;;;;;;4987167;28;20493;-61
2024/03/22 11:19:12;;;;;;;7.73;6.63;;;25.20;38.60;;;;;;4989008;28;20195;-61
2024/03/22 11:21:38;;;;;;;6.67;6.03;;;25.40;37.40;;;;;;4988663;28;20420;-61
2024/03/22 11:24:05;;;;;;;6.30;5.70;;;25.40;37.60;;;;;;4989638;28;20282;-62
2024/03/22 11:26:32;;;;;;;7.00;6.30;;;25.40;37.80;;;;;;4987851;28;20875;-63
2024/03/22 11:28:58;;;;;;;6.47;5.87;;;25.40;37.10;;;;;;4988642;28;20895;-61
2024/03/22 11:31:27;;;;;;;7.10;6.20;;;25.50;37.50;;;;;;4989322;28;20422;-63
2024/03/22 11:33:53;;;;;;;5.87;5.33;;;25.60;38.80;;;;;;4987116;28;20881;-62
2024/03/22 11:36:19;;;;;;;9.07;5.87;;;25.80;38.50;;;;;;4988712;28;20474;-62
2024/03/22 11:38:45;;;;;;;7.70;5.80;;;25.90;36.90;;;;;;4988579;28;21737;-61
2024/03/22 11:41:11;;;;;;;9.20;6.07;;;26.10;36.50;;;;;;4990540;28;20195;-62
2024/03/22 11:43:37;;;;;;;7.17;5.37;;;25.70;35.90;;;;;;4985755;28;20199;-63
2024/03/22 11:46:03;;;;;;;5.93;5.43;;;25.60;36.60;;;;;;4991007;28;20418;-62
2024/03/22 11:48:28;;;;;;;6.80;5.73;;;25.70;36.40;;;;;;4982964;28;21083;-61
2024/03/22 11:50:55;;;;;;;6.33;5.73;;;25.70;36.40;;;;;;4984169;28;20186;-59
2024/03/22 11:53:21;;;;;;;6.83;5.97;;;25.50;35.80;;;;;;4982023;28;20269;-62
2024/03/22 11:55:49;;;;;;;6.97;6.33;;;25.50;37.50;;;;;;4985845;28;20462;-62
2024/03/22 11:58:15;;;;;;;7.00;6.27;;;25.70;37.20;;;;;;4987653;28;20588;-59
2024/03/22 12:00:41;;;;;;;7.47;4.53;;;25.90;37.30;;;;;;4985185;28;20450;-60
2024/03/22 12:03:07;;;;;;;9.43;4.67;;;26.00;38.10;;;;;;4982253;28;20210;-62
2024/03/22 12:05:33;;;;;;;6.10;5.50;;;26.20;37.90;;;;;;4975028;28;20461;-62
2024/03/22 12:07:58;;;;;;;7.33;5.37;;;26.40;36.80;;;;;;4979809;28;20222;-60
2024/03/22 12:10:24;;;;;;;5.20;4.70;;;26.50;35.80;;;;;;4988632;28;20202;-61
2024/03/22 12:12:50;;;;;;;6.90;5.20;;;26.60;36.40;;;;;;4989884;28;20186;-59
2024/03/22 12:15:15;;;;;;;5.77;5.27;;;26.70;36.50;;;;;;4987941;28;20276;-62
2024/03/22 12:17:43;;;;;;;5.90;5.30;;;26.80;35.50;;;;;;4987476;28;20262;-62
2024/03/22 12:20:09;;;;;;;6.47;5.87;;;26.90;36.80;;;;;;4988703;28;20194;-61
2024/03/22 12:22:35;;;;;;;7.47;5.53;;;27.00;34.90;;;;;;4989560;28;20796;-62
2024/03/22 12:25:01;;;;;;;7.47;4.70;;;27.10;35.60;;;;;;4985453;28;20441;-60
2024/03/22 12:27:26;;;;;;;6.20;5.70;;;27.20;35.50;;;;;;4987214;28;20277;-61
2024/03/22 12:29:52;;;;;;;5.27;4.53;;;27.20;35.50;;;;;;4987618;28;20217;-61
2024/03/22 12:32:17;;;;;;;7.77;7.00;;;27.30;35.00;;;;;;4988006;28;20681;-61
2024/03/22 12:34:43;;;;;;;5.50;5.07;;;27.30;34.50;;;;;;4989271;28;20189;-62
2024/03/22 12:37:09;;;;;;;5.73;4.80;;;27.40;35.00;;;;;;4986372;28;20206;-61